Oconto Falls, WI

1:05 AM CDT on September 02, 2014 (GMT -0500)
Oconto Municipal | Change Station
CLOSE
Current Station
Airport
Location: Oconto,
Elevation: 604 ft
Nearby Weather Stations

Elev 604 ft 44.87 °N, 87.91 °W | Updated 10 minutes ago

Clear
Clear
58 °F
Feels Like 58 °F
N
4
Wind Variable Wind from West

Today
High -- | Low -- °F
--% Chance of Precip.
Yesterday
High -- | Low -- °F
Precip. -- in
6:16 AM 7:27 PM
Waxing Crescent, 48% visible
Pressure 29.81 in
Visibility 10.0 miles
Clouds Clear
Dew Point 58 °F
Humidity 100%
Rainfall 0.00 in
Snow Depth Not available.
UV 0 out of 12
Pollen 3.90 out of 12
Air Quality Not available.
Flu Activity Not available.
METAR KOCQ 020555Z AUTO 26003KT 10SM CLR 14/14 A2981 RMK AO1 T01420142 10218 20128 402400128

More Conditions Fewer Conditions

Pressure 29.81 in
Visibility 10.0 miles
Clouds Clear
Dew Point 58 °F
Humidity 100%
Rainfall 0.00 in
Snow Depth Not available.
UV 0 out of 12
Pollen 3.90 out of 12
Air Quality Not available.
Flu Activity Not available.
METAR KOCQ 020555Z AUTO 26003KT 10SM CLR 14/14 A2981 RMK AO1 T01420142 10218 20128 402400128

More Conditions Fewer Conditions

10-Day Weather Forecast

Almanac

Astronomy

Sep. 02, 2014 Rise Set
Actual Time 6:16 AM CDT 7:27 PM CDT
Civil Twilight 5:45 AM CDT 7:57 PM CDT
Nautical Twilight 5:09 AM CDT 8:33 PM CDT
Astronomical Twilight 4:31 AM CDT 9:12 PM CDT
Moon 2:18 PM CDT No Moon Set
Length of Visible Light 14h 11m
Length of Day
13h 11m
Tomorrow will be 3m 1s shorter.
Waxing Crescent, 48% of the Moon is Illuminated
Today
Waxing Crescent
Sep 2
First Quarter
Sep 8
Full
Sep 15
Last Quarter
Sep 24
New

Today's Extremes

State Highs State Lows

Community

WunderPhotos

Upload Photos

1,749,581 photos uploaded!

WunderBlogs® & News

Nearby

Snow Depth

Station Depth Elevation
No new snow has been reported.

Earthquake Activity

City Distance Mag. Time & Date
No recent earthquake activity has been reported nearby.
Minimum magnitude displayed is 2.5.

Coastal Water Temperatures

Place Temperature
Menominee, MI 70.0 °F

Nearby Weather Stations